LOG13K EKVG-EGPD
Flight info
| Callsign | LOG13K |
|---|---|
| Flight time | 0h 58m |
| Altitude | 37000 |
| Route | VG DCT NALAN DCT BAMRA DCT KWL/N0448F360 DCT WIK/N0330F150 Y904 SMOKI |
| Aircraft | CRJ7/M-SDFGIRWY/S |
Departure
| Time | 2026-05-08 14:50 |
|---|---|
| Airport | Vágar Airport (EKVG) |
Arrival
| Time | 2026-05-08 15:48 |
|---|---|
| Airport | Aberdeen International Airport (EGPD) |
| Time | Latitude | Longitude | Altitude | Speed | Heading |
|---|---|---|---|---|---|
| 2026-05-08 14:32 | 62.06730 | -7.28127 | 289 ft | 0 kts | 73° |
| 2026-05-08 14:45 | 62.06731 | -7.28124 | 293 ft | 2 kts | 78° |
| 2026-05-08 14:45 | 62.06728 | -7.28107 | 290 ft | 1 kts | 131° |
| 2026-05-08 14:45 | 62.06714 | -7.28099 | 294 ft | 5 kts | 175° |
| 2026-05-08 14:46 | 62.06658 | -7.28095 | 287 ft | 11 kts | 178° |
| 2026-05-08 14:46 | 62.06581 | -7.28093 | 291 ft | 10 kts | 185° |
| 2026-05-08 14:46 | 62.06522 | -7.28128 | 287 ft | 9 kts | 202° |
| 2026-05-08 14:46 | 62.06468 | -7.28137 | 287 ft | 9 kts | 145° |
| 2026-05-08 14:47 | 62.06430 | -7.28012 | 294 ft | 12 kts | 117° |
| 2026-05-08 14:47 | 62.06391 | -7.27851 | 295 ft | 13 kts | 118° |
| 2026-05-08 14:47 | 62.06347 | -7.27674 | 292 ft | 19 kts | 118° |
| 2026-05-08 14:47 | 62.06274 | -7.27381 | 284 ft | 26 kts | 118° |
| 2026-05-08 14:48 | 62.06181 | -7.27006 | 272 ft | 32 kts | 118° |
| 2026-05-08 14:48 | 62.06077 | -7.26587 | 263 ft | 30 kts | 118° |
| 2026-05-08 14:48 | 62.05980 | -7.26200 | 246 ft | 20 kts | 117° |
| 2026-05-08 14:48 | 62.05940 | -7.26062 | 243 ft | 7 kts | 145° |
| 2026-05-08 14:49 | 62.05932 | -7.26044 | 243 ft | 1 kts | 109° |
| 2026-05-08 14:49 | 62.05933 | -7.26028 | 244 ft | 2 kts | 54° |
| 2026-05-08 14:49 | 62.05951 | -7.26029 | 244 ft | 4 kts | 313° |
| 2026-05-08 14:49 | 62.05968 | -7.26146 | 244 ft | 8 kts | 296° |
| 2026-05-08 14:50 | 62.05989 | -7.26236 | 247 ft | 20 kts | 296° |
| 2026-05-08 14:50 | 62.06164 | -7.26935 | 272 ft | 87 kts | 298° |
| 2026-05-08 14:50 | 62.06545 | -7.28443 | 307 ft | 141 kts | 298° |
| 2026-05-08 14:50 | 62.06955 | -7.30436 | 1060 ft | 136 kts | 296° |
| 2026-05-08 14:51 | 62.07246 | -7.32275 | 2153 ft | 132 kts | 295° |
| 2026-05-08 14:51 | 62.07518 | -7.34080 | 2968 ft | 131 kts | 297° |
| 2026-05-08 14:51 | 62.07677 | -7.36008 | 3744 ft | 132 kts | 287° |
| 2026-05-08 14:51 | 62.07882 | -7.38060 | 4240 ft | 143 kts | 291° |
| 2026-05-08 14:52 | 62.08149 | -7.40157 | 4831 ft | 157 kts | 293° |
| 2026-05-08 14:52 | 62.08691 | -7.45380 | 5684 ft | 205 kts | 282° |
| 2026-05-08 14:52 | 62.08676 | -7.48679 | 5905 ft | 240 kts | 270° |
| 2026-05-08 14:53 | 62.08400 | -7.52389 | 6007 ft | 275 kts | 260° |
| 2026-05-08 14:53 | 62.07616 | -7.56207 | 6051 ft | 289 kts | 238° |
| 2026-05-08 14:53 | 62.06238 | -7.59299 | 6061 ft | 283 kts | 223° |
| 2026-05-08 14:53 | 62.04567 | -7.61505 | 6045 ft | 284 kts | 208° |
| 2026-05-08 14:54 | 62.02675 | -7.62700 | 6036 ft | 284 kts | 195° |
| 2026-05-08 14:54 | 62.00669 | -7.62638 | 6216 ft | 297 kts | 175° |
| 2026-05-08 14:54 | 61.98906 | -7.61596 | 7029 ft | 302 kts | 164° |
| 2026-05-08 14:54 | 61.96984 | -7.59799 | 7915 ft | 304 kts | 158° |
| 2026-05-08 14:55 | 61.95070 | -7.57645 | 8543 ft | 315 kts | 154° |
| 2026-05-08 14:55 | 61.93156 | -7.55298 | 9349 ft | 319 kts | 153° |
| 2026-05-08 14:55 | 61.91230 | -7.52898 | 10118 ft | 322 kts | 154° |
| 2026-05-08 14:55 | 61.89292 | -7.50497 | 10898 ft | 322 kts | 155° |
| 2026-05-08 14:56 | 61.87335 | -7.48181 | 11620 ft | 326 kts | 156° |
| 2026-05-08 14:56 | 61.85278 | -7.45818 | 11868 ft | 346 kts | 156° |
| 2026-05-08 14:56 | 61.83101 | -7.43348 | 12155 ft | 363 kts | 156° |
| 2026-05-08 14:56 | 61.80867 | -7.40831 | 12790 ft | 368 kts | 156° |
| 2026-05-08 14:57 | 61.78617 | -7.38220 | 13592 ft | 365 kts | 155° |
| 2026-05-08 14:57 | 61.76391 | -7.35638 | 14174 ft | 371 kts | 153° |
| 2026-05-08 14:57 | 61.74325 | -7.32304 | 14764 ft | 377 kts | 144° |
| 2026-05-08 14:57 | 61.72337 | -7.28508 | 15074 ft | 387 kts | 140° |
| 2026-05-08 14:58 | 61.70353 | -7.24620 | 15481 ft | 395 kts | 141° |
| 2026-05-08 14:58 | 61.68315 | -7.20776 | 16191 ft | 393 kts | 142° |
| 2026-05-08 14:58 | 61.66233 | -7.16944 | 16588 ft | 399 kts | 143° |
| 2026-05-08 14:58 | 61.64121 | -7.13122 | 17090 ft | 403 kts | 143° |
| 2026-05-08 14:59 | 61.61995 | -7.09268 | 17675 ft | 402 kts | 143° |
| 2026-05-08 14:59 | 61.57749 | -7.01594 | 18687 ft | 404 kts | 143° |
| 2026-05-08 14:59 | 61.55859 | -6.98183 | 19075 ft | 406 kts | 143° |
| 2026-05-08 15:00 | 61.53713 | -6.94332 | 19600 ft | 403 kts | 142° |
| 2026-05-08 15:00 | 61.51568 | -6.90546 | 20112 ft | 403 kts | 142° |
| 2026-05-08 15:00 | 61.49412 | -6.86710 | 20364 ft | 410 kts | 143° |
| 2026-05-08 15:00 | 61.47980 | -6.84152 | 20706 ft | 408 kts | 142° |
| 2026-05-08 15:01 | 61.45107 | -6.79063 | 21206 ft | 411 kts | 144° |
| 2026-05-08 15:01 | 61.42914 | -6.75160 | 21453 ft | 414 kts | 142° |
| 2026-05-08 15:01 | 61.40711 | -6.71250 | 21716 ft | 419 kts | 144° |
| 2026-05-08 15:01 | 61.38480 | -6.67304 | 22066 ft | 421 kts | 143° |
| 2026-05-08 15:02 | 61.36254 | -6.63381 | 22571 ft | 418 kts | 142° |
| 2026-05-08 15:02 | 61.34038 | -6.59382 | 22740 ft | 424 kts | 143° |
| 2026-05-08 15:02 | 61.31811 | -6.55387 | 23253 ft | 419 kts | 142° |
| 2026-05-08 15:02 | 61.29602 | -6.51474 | 23731 ft | 416 kts | 142° |
| 2026-05-08 15:03 | 61.27396 | -6.47595 | 24074 ft | 415 kts | 142° |
| 2026-05-08 15:03 | 61.25193 | -6.43736 | 24402 ft | 414 kts | 142° |
| 2026-05-08 15:03 | 61.23709 | -6.41139 | 24600 ft | 414 kts | 143° |
| 2026-05-08 15:03 | 61.21503 | -6.37281 | 24921 ft | 414 kts | 143° |
| 2026-05-08 15:04 | 61.19308 | -6.33442 | 25222 ft | 414 kts | 143° |
| 2026-05-08 15:04 | 61.17141 | -6.29646 | 25551 ft | 413 kts | 144° |
| 2026-05-08 15:04 | 61.14916 | -6.25758 | 25826 ft | 414 kts | 144° |
| 2026-05-08 15:04 | 61.12764 | -6.21978 | 26336 ft | 408 kts | 144° |
| 2026-05-08 15:05 | 61.10601 | -6.18217 | 26746 ft | 405 kts | 145° |
| 2026-05-08 15:05 | 61.08441 | -6.14475 | 27092 ft | 405 kts | 145° |
| 2026-05-08 15:05 | 61.06284 | -6.10745 | 27428 ft | 404 kts | 145° |
| 2026-05-08 15:05 | 61.04127 | -6.07027 | 27742 ft | 404 kts | 145° |
| 2026-05-08 15:06 | 61.01975 | -6.03317 | 28085 ft | 403 kts | 145° |
| 2026-05-08 15:06 | 60.99814 | -5.99637 | 28416 ft | 402 kts | 147° |
| 2026-05-08 15:06 | 60.97842 | -5.96691 | 28716 ft | 398 kts | 151° |
| 2026-05-08 15:06 | 60.95516 | -5.93606 | 29052 ft | 397 kts | 153° |
| 2026-05-08 15:07 | 60.93182 | -5.90573 | 29379 ft | 397 kts | 153° |
| 2026-05-08 15:07 | 60.90869 | -5.87502 | 29671 ft | 396 kts | 152° |
| 2026-05-08 15:07 | 60.88581 | -5.84370 | 30033 ft | 395 kts | 152° |
| 2026-05-08 15:07 | 60.86298 | -5.81247 | 30276 ft | 394 kts | 152° |
| 2026-05-08 15:08 | 60.84013 | -5.78115 | 30521 ft | 395 kts | 152° |
| 2026-05-08 15:08 | 60.81726 | -5.74984 | 30728 ft | 396 kts | 152° |
| 2026-05-08 15:08 | 60.79435 | -5.71861 | 30951 ft | 396 kts | 152° |
| 2026-05-08 15:08 | 60.77140 | -5.68743 | 31188 ft | 396 kts | 152° |
| 2026-05-08 15:09 | 60.74845 | -5.65619 | 31429 ft | 396 kts | 151° |
| 2026-05-08 15:09 | 60.72548 | -5.62496 | 31645 ft | 397 kts | 152° |
| 2026-05-08 15:09 | 60.70246 | -5.59376 | 31876 ft | 397 kts | 152° |
| 2026-05-08 15:09 | 60.67943 | -5.56263 | 32110 ft | 397 kts | 152° |
| 2026-05-08 15:10 | 60.65637 | -5.53152 | 32330 ft | 397 kts | 152° |
| 2026-05-08 15:10 | 60.63329 | -5.50042 | 32543 ft | 397 kts | 152° |
| 2026-05-08 15:10 | 60.61060 | -5.46974 | 32798 ft | 397 kts | 152° |
| 2026-05-08 15:10 | 60.58763 | -5.43854 | 33024 ft | 397 kts | 152° |
| 2026-05-08 15:11 | 60.56473 | -5.40717 | 33243 ft | 396 kts | 152° |
| 2026-05-08 15:11 | 60.54187 | -5.37595 | 33476 ft | 396 kts | 152° |
| 2026-05-08 15:11 | 60.51891 | -5.34532 | 33690 ft | 396 kts | 152° |
| 2026-05-08 15:11 | 60.49588 | -5.31456 | 33887 ft | 397 kts | 152° |
| 2026-05-08 15:12 | 60.47281 | -5.28388 | 34062 ft | 397 kts | 152° |
| 2026-05-08 15:12 | 60.44973 | -5.25316 | 34237 ft | 397 kts | 152° |
| 2026-05-08 15:12 | 60.42663 | -5.22255 | 34401 ft | 397 kts | 152° |
| 2026-05-08 15:12 | 60.40354 | -5.19193 | 34585 ft | 397 kts | 152° |
| 2026-05-08 15:13 | 60.38042 | -5.16136 | 34748 ft | 397 kts | 152° |
| 2026-05-08 15:13 | 60.35729 | -5.13083 | 34876 ft | 398 kts | 152° |
| 2026-05-08 15:13 | 60.33415 | -5.10033 | 35040 ft | 397 kts | 152° |
| 2026-05-08 15:13 | 60.31101 | -5.06986 | 35204 ft | 397 kts | 152° |
| 2026-05-08 15:14 | 60.28783 | -5.03942 | 35370 ft | 397 kts | 152° |
| 2026-05-08 15:14 | 60.26463 | -5.00903 | 35519 ft | 397 kts | 152° |
| 2026-05-08 15:14 | 60.24407 | -4.98206 | 35644 ft | 398 kts | 152° |
| 2026-05-08 15:14 | 60.22086 | -4.95176 | 35809 ft | 398 kts | 152° |
| 2026-05-08 15:15 | 60.19765 | -4.92142 | 35957 ft | 398 kts | 152° |
| 2026-05-08 15:15 | 60.17440 | -4.89122 | 36109 ft | 398 kts | 152° |
| 2026-05-08 15:15 | 60.15121 | -4.86102 | 36248 ft | 398 kts | 152° |
| 2026-05-08 15:15 | 60.12797 | -4.83084 | 36400 ft | 398 kts | 152° |
| 2026-05-08 15:16 | 60.10469 | -4.80070 | 36544 ft | 398 kts | 152° |
| 2026-05-08 15:16 | 60.08140 | -4.77052 | 36649 ft | 399 kts | 152° |
| 2026-05-08 15:16 | 60.05808 | -4.74046 | 36787 ft | 399 kts | 152° |
| 2026-05-08 15:16 | 60.03472 | -4.71037 | 36883 ft | 400 kts | 152° |
| 2026-05-08 15:17 | 59.99037 | -4.65331 | 36945 ft | 406 kts | 152° |
| 2026-05-08 15:17 | 59.94280 | -4.59228 | 36962 ft | 412 kts | 152° |
| 2026-05-08 15:18 | 59.89406 | -4.52998 | 36982 ft | 420 kts | 152° |
| 2026-05-08 15:18 | 59.84442 | -4.46684 | 36989 ft | 427 kts | 152° |
| 2026-05-08 15:19 | 59.79393 | -4.40284 | 36972 ft | 434 kts | 152° |
| 2026-05-08 15:19 | 59.74268 | -4.33782 | 36995 ft | 440 kts | 152° |
| 2026-05-08 15:20 | 59.69068 | -4.27226 | 36998 ft | 446 kts | 152° |
| 2026-05-08 15:20 | 59.63789 | -4.20613 | 37009 ft | 452 kts | 152° |
| 2026-05-08 15:21 | 59.58453 | -4.13937 | 37005 ft | 457 kts | 152° |
| 2026-05-08 15:21 | 59.53037 | -4.07200 | 36991 ft | 461 kts | 152° |
| 2026-05-08 15:22 | 59.47618 | -4.00473 | 37009 ft | 461 kts | 152° |
| 2026-05-08 15:22 | 59.42787 | -3.93301 | 37022 ft | 466 kts | 141° |
| 2026-05-08 15:23 | 59.38251 | -3.84129 | 37011 ft | 471 kts | 134° |
| 2026-05-08 15:23 | 59.34088 | -3.74192 | 37018 ft | 471 kts | 134° |
| 2026-05-08 15:24 | 59.29835 | -3.64494 | 37024 ft | 470 kts | 135° |
| 2026-05-08 15:24 | 59.25549 | -3.54839 | 37004 ft | 469 kts | 136° |
| 2026-05-08 15:25 | 59.21287 | -3.45291 | 37030 ft | 469 kts | 136° |
| 2026-05-08 15:25 | 59.16993 | -3.35702 | 37034 ft | 469 kts | 136° |
| 2026-05-08 15:26 | 59.12697 | -3.26147 | 37036 ft | 469 kts | 136° |
| 2026-05-08 15:26 | 59.08388 | -3.16605 | 37049 ft | 469 kts | 136° |
| 2026-05-08 15:27 | 59.03653 | -3.08162 | 37052 ft | 455 kts | 155° |
| 2026-05-08 15:27 | 59.00799 | -3.05684 | 37060 ft | 445 kts | 167° |
| 2026-05-08 15:27 | 58.98201 | -3.04284 | 37040 ft | 443 kts | 171° |
| 2026-05-08 15:28 | 58.92200 | -3.01723 | 37045 ft | 441 kts | 173° |
| 2026-05-08 15:28 | 58.86553 | -2.99507 | 37045 ft | 440 kts | 174° |
| 2026-05-08 15:29 | 58.80535 | -2.97314 | 37048 ft | 440 kts | 175° |
| 2026-05-08 15:29 | 58.74518 | -2.96465 | 37062 ft | 428 kts | 193° |
| 2026-05-08 15:30 | 58.71672 | -2.97919 | 37065 ft | 422 kts | 204° |
| 2026-05-08 15:30 | 58.68937 | -2.99946 | 37058 ft | 421 kts | 204° |
| 2026-05-08 15:30 | 58.63656 | -3.03063 | 37051 ft | 425 kts | 196° |
| 2026-05-08 15:31 | 58.57839 | -3.05210 | 37044 ft | 426 kts | 194° |
| 2026-05-08 15:31 | 58.52018 | -3.07360 | 37041 ft | 428 kts | 191° |
| 2026-05-08 15:32 | 58.49025 | -3.07388 | 37054 ft | 435 kts | 178° |
| 2026-05-08 15:32 | 58.46061 | -3.06576 | 37052 ft | 436 kts | 176° |
| 2026-05-08 15:32 | 58.40031 | -3.04769 | 36410 ft | 432 kts | 176° |
| 2026-05-08 15:33 | 58.37088 | -3.03765 | 35723 ft | 430 kts | 172° |
| 2026-05-08 15:33 | 58.34253 | -3.01866 | 35076 ft | 433 kts | 164° |
| 2026-05-08 15:33 | 58.31526 | -2.99543 | 34422 ft | 430 kts | 163° |
| 2026-05-08 15:33 | 58.29120 | -2.97479 | 33813 ft | 425 kts | 165° |
| 2026-05-08 15:34 | 58.26412 | -2.95340 | 33032 ft | 418 kts | 167° |
| 2026-05-08 15:34 | 58.23754 | -2.93393 | 32308 ft | 412 kts | 169° |
| 2026-05-08 15:34 | 58.21091 | -2.91457 | 31585 ft | 409 kts | 169° |
| 2026-05-08 15:34 | 58.18448 | -2.89521 | 30875 ft | 405 kts | 169° |
| 2026-05-08 15:35 | 58.15838 | -2.87597 | 30145 ft | 400 kts | 170° |
| 2026-05-08 15:35 | 58.13260 | -2.85699 | 29338 ft | 396 kts | 170° |
| 2026-05-08 15:35 | 58.10696 | -2.83813 | 28532 ft | 392 kts | 169° |
| 2026-05-08 15:35 | 58.08169 | -2.81954 | 27775 ft | 389 kts | 169° |
| 2026-05-08 15:36 | 58.05659 | -2.80111 | 27022 ft | 385 kts | 168° |
| 2026-05-08 15:36 | 58.04006 | -2.78900 | 26529 ft | 382 kts | 168° |
| 2026-05-08 15:36 | 58.00713 | -2.76493 | 25582 ft | 378 kts | 168° |
| 2026-05-08 15:36 | 57.98561 | -2.74924 | 24876 ft | 377 kts | 167° |
| 2026-05-08 15:37 | 57.96117 | -2.73148 | 24018 ft | 375 kts | 167° |
| 2026-05-08 15:37 | 57.93704 | -2.71391 | 23093 ft | 370 kts | 166° |
| 2026-05-08 15:37 | 57.91321 | -2.69647 | 22129 ft | 365 kts | 166° |
| 2026-05-08 15:37 | 57.88962 | -2.67943 | 21153 ft | 361 kts | 166° |
| 2026-05-08 15:38 | 57.86622 | -2.66260 | 20245 ft | 359 kts | 165° |
| 2026-05-08 15:38 | 57.84295 | -2.64578 | 19356 ft | 357 kts | 165° |
| 2026-05-08 15:38 | 57.81986 | -2.62908 | 18514 ft | 355 kts | 165° |
| 2026-05-08 15:38 | 57.79692 | -2.61243 | 17564 ft | 353 kts | 165° |
| 2026-05-08 15:39 | 57.77404 | -2.59607 | 16630 ft | 350 kts | 165° |
| 2026-05-08 15:39 | 57.75127 | -2.58028 | 15723 ft | 348 kts | 165° |
| 2026-05-08 15:39 | 57.72866 | -2.56466 | 14836 ft | 345 kts | 165° |
| 2026-05-08 15:39 | 57.70656 | -2.54945 | 13992 ft | 342 kts | 165° |
| 2026-05-08 15:40 | 57.68432 | -2.53417 | 13096 ft | 338 kts | 164° |
| 2026-05-08 15:40 | 57.66241 | -2.51912 | 12285 ft | 332 kts | 164° |
| 2026-05-08 15:40 | 57.64091 | -2.50433 | 11507 ft | 327 kts | 164° |
| 2026-05-08 15:40 | 57.61992 | -2.48996 | 10736 ft | 316 kts | 163° |
| 2026-05-08 15:41 | 57.59958 | -2.47611 | 10108 ft | 305 kts | 163° |
| 2026-05-08 15:41 | 57.58004 | -2.46269 | 9521 ft | 294 kts | 163° |
| 2026-05-08 15:41 | 57.56120 | -2.44978 | 8933 ft | 285 kts | 163° |
| 2026-05-08 15:41 | 57.54283 | -2.43726 | 8401 ft | 278 kts | 163° |
| 2026-05-08 15:42 | 57.52491 | -2.42517 | 7853 ft | 272 kts | 163° |
| 2026-05-08 15:42 | 57.50732 | -2.41318 | 7327 ft | 267 kts | 163° |
| 2026-05-08 15:42 | 57.48985 | -2.40259 | 6849 ft | 262 kts | 166° |
| 2026-05-08 15:42 | 57.47254 | -2.39270 | 6329 ft | 259 kts | 166° |
| 2026-05-08 15:43 | 57.45543 | -2.38296 | 5728 ft | 256 kts | 165° |
| 2026-05-08 15:43 | 57.43869 | -2.37263 | 5223 ft | 250 kts | 164° |
| 2026-05-08 15:43 | 57.42257 | -2.36160 | 4795 ft | 243 kts | 161° |
| 2026-05-08 15:43 | 57.40712 | -2.35010 | 4401 ft | 235 kts | 161° |
| 2026-05-08 15:44 | 57.39222 | -2.33904 | 4067 ft | 227 kts | 161° |
| 2026-05-08 15:44 | 57.37779 | -2.32823 | 3764 ft | 220 kts | 161° |
| 2026-05-08 15:44 | 57.36383 | -2.31790 | 3467 ft | 213 kts | 161° |
| 2026-05-08 15:44 | 57.35004 | -2.30759 | 3173 ft | 214 kts | 161° |
| 2026-05-08 15:45 | 57.33621 | -2.29726 | 2902 ft | 215 kts | 161° |
| 2026-05-08 15:45 | 57.32228 | -2.28694 | 2655 ft | 217 kts | 161° |
| 2026-05-08 15:45 | 57.30843 | -2.27673 | 2397 ft | 218 kts | 161° |
| 2026-05-08 15:45 | 57.29469 | -2.26647 | 2079 ft | 204 kts | 161° |
| 2026-05-08 15:46 | 57.28236 | -2.25719 | 1781 ft | 180 kts | 161° |
| 2026-05-08 15:46 | 57.27182 | -2.24942 | 1535 ft | 148 kts | 161° |
| 2026-05-08 15:46 | 57.26264 | -2.24252 | 1356 ft | 133 kts | 161° |
| 2026-05-08 15:46 | 57.25407 | -2.23622 | 1158 ft | 134 kts | 162° |
| 2026-05-08 15:47 | 57.24546 | -2.22988 | 954 ft | 134 kts | 161° |
| 2026-05-08 15:47 | 57.23692 | -2.22340 | 806 ft | 131 kts | 161° |
| 2026-05-08 15:47 | 57.22857 | -2.21731 | 627 ft | 129 kts | 161° |
| 2026-05-08 15:47 | 57.22010 | -2.21103 | 438 ft | 131 kts | 161° |
| 2026-05-08 15:48 | 57.20373 | -2.19914 | 247 ft | 107 kts | 160° |
| 2026-05-08 15:48 | 57.19857 | -2.19531 | 249 ft | 53 kts | 157° |
| 2026-05-08 15:48 | 57.19596 | -2.19336 | 246 ft | 29 kts | 158° |
| 2026-05-08 15:49 | 57.19469 | -2.19247 | 245 ft | 14 kts | 174° |
| 2026-05-08 15:49 | 57.19424 | -2.19323 | 245 ft | 10 kts | 270° |
| 2026-05-08 15:49 | 57.19475 | -2.19440 | 245 ft | 14 kts | 320° |
| 2026-05-08 15:49 | 57.19552 | -2.19562 | 245 ft | 15 kts | 319° |
| 2026-05-08 15:50 | 57.19648 | -2.19699 | 245 ft | 20 kts | 337° |
| 2026-05-08 15:50 | 57.19792 | -2.19804 | 245 ft | 24 kts | 336° |
| 2026-05-08 15:50 | 57.19890 | -2.19902 | 245 ft | 13 kts | 317° |
| 2026-05-08 15:50 | 57.19953 | -2.20013 | 245 ft | 10 kts | 316° |
| 2026-05-08 15:51 | 57.19974 | -2.20073 | 245 ft | 4 kts | 260° |
| 2026-05-08 15:51 | 57.19967 | -2.20118 | 245 ft | 4 kts | 248° |
| 2026-05-08 15:51 | 57.19961 | -2.20143 | 245 ft | 2 kts | 248° |
| 2026-05-08 15:51 | 57.19956 | -2.20164 | 245 ft | 1 kts | 248° |
| 2026-05-08 15:52 | 57.19956 | -2.20166 | 245 ft | 0 kts | 248° |